sensor_id;sensor_type;location;lat;lon;timestamp;P1;durP1;ratioP1;P2;durP2;ratioP2
81378;SDS011;70830;42.290;-71.354;2023-08-08T00:01:37;16.20;;;14.50;;
81378;SDS011;70830;42.290;-71.354;2023-08-08T00:04:04;17.50;;;13.45;;
81378;SDS011;70830;42.290;-71.354;2023-08-08T00:06:30;15.40;;;13.75;;
81378;SDS011;70830;42.290;-71.354;2023-08-08T00:08:56;16.50;;;13.20;;
81378;SDS011;70830;42.290;-71.354;2023-08-08T00:11:22;18.40;;;14.75;;
81378;SDS011;70830;42.290;-71.354;2023-08-08T00:13:48;17.55;;;13.93;;
81378;SDS011;70830;42.290;-71.354;2023-08-08T00:16:14;17.45;;;14.43;;
81378;SDS011;70830;42.290;-71.354;2023-08-08T00:18:41;15.65;;;14.02;;
81378;SDS011;70830;42.290;-71.354;2023-08-08T00:21:07;16.10;;;14.40;;
81378;SDS011;70830;42.290;-71.354;2023-08-08T00:23:33;16.15;;;14.10;;
81378;SDS011;70830;42.290;-71.354;2023-08-08T00:25:59;17.38;;;14.07;;
81378;SDS011;70830;42.290;-71.354;2023-08-08T00:28:25;17.38;;;15.30;;
81378;SDS011;70830;42.290;-71.354;2023-08-08T00:30:51;18.63;;;14.32;;
81378;SDS011;70830;42.290;-71.354;2023-08-08T00:33:17;21.80;;;15.18;;
81378;SDS011;70830;42.290;-71.354;2023-08-08T00:35:44;17.15;;;14.90;;
81378;SDS011;70830;42.290;-71.354;2023-08-08T00:38:10;18.45;;;14.63;;
81378;SDS011;70830;42.290;-71.354;2023-08-08T00:40:37;17.20;;;15.05;;
81378;SDS011;70830;42.290;-71.354;2023-08-08T00:43:02;17.00;;;15.30;;
81378;SDS011;70830;42.290;-71.354;2023-08-08T00:45:28;20.92;;;17.65;;
81378;SDS011;70830;42.290;-71.354;2023-08-08T00:47:54;19.30;;;17.38;;
81378;SDS011;70830;42.290;-71.354;2023-08-08T00:50:20;19.23;;;13.88;;
81378;SDS011;70830;42.290;-71.354;2023-08-08T00:52:47;18.75;;;15.77;;
81378;SDS011;70830;42.290;-71.354;2023-08-08T00:55:13;16.95;;;14.45;;
81378;SDS011;70830;42.290;-71.354;2023-08-08T00:57:40;18.80;;;16.27;;
81378;SDS011;70830;42.290;-71.354;2023-08-08T01:00:07;22.35;;;15.65;;
81378;SDS011;70830;42.290;-71.354;2023-08-08T01:02:37;16.52;;;14.38;;
81378;SDS011;70830;42.290;-71.354;2023-08-08T01:05:03;19.58;;;16.98;;
81378;SDS011;70830;42.290;-71.354;2023-08-08T01:07:33;26.30;;;19.65;;
81378;SDS011;70830;42.290;-71.354;2023-08-08T01:12:39;21.75;;;19.45;;
81378;SDS011;70830;42.290;-71.354;2023-08-08T01:15:09;22.65;;;20.02;;
81378;SDS011;70830;42.290;-71.354;2023-08-08T01:17:36;22.00;;;19.77;;
81378;SDS011;70830;42.290;-71.354;2023-08-08T01:20:04;20.38;;;17.90;;
81378;SDS011;70830;42.290;-71.354;2023-08-08T01:22:43;20.88;;;18.88;;
81378;SDS011;70830;42.290;-71.354;2023-08-08T01:25:16;26.35;;;19.00;;
81378;SDS011;70830;42.290;-71.354;2023-08-08T01:27:43;26.27;;;18.77;;
81378;SDS011;70830;42.290;-71.354;2023-08-08T01:30:09;22.95;;;19.10;;
81378;SDS011;70830;42.290;-71.354;2023-08-08T01:32:36;20.88;;;18.73;;
81378;SDS011;70830;42.290;-71.354;2023-08-08T01:35:02;19.42;;;17.52;;
81378;SDS011;70830;42.290;-71.354;2023-08-08T01:37:29;18.42;;;16.52;;
81378;SDS011;70830;42.290;-71.354;2023-08-08T01:40:00;20.30;;;18.20;;
81378;SDS011;70830;42.290;-71.354;2023-08-08T01:42:27;20.85;;;18.13;;
81378;SDS011;70830;42.290;-71.354;2023-08-08T01:44:53;19.17;;;17.17;;
81378;SDS011;70830;42.290;-71.354;2023-08-08T01:47:21;20.80;;;18.67;;
81378;SDS011;70830;42.290;-71.354;2023-08-08T01:49:47;18.27;;;16.02;;
81378;SDS011;70830;42.290;-71.354;2023-08-08T01:52:13;21.42;;;19.20;;
81378;SDS011;70830;42.290;-71.354;2023-08-08T01:54:39;21.02;;;17.83;;
81378;SDS011;70830;42.290;-71.354;2023-08-08T01:57:07;20.83;;;17.33;;
81378;SDS011;70830;42.290;-71.354;2023-08-08T01:59:33;20.67;;;18.50;;
81378;SDS011;70830;42.290;-71.354;2023-08-08T02:01:59;20.08;;;17.88;;
81378;SDS011;70830;42.290;-71.354;2023-08-08T02:04:25;18.83;;;16.60;;
81378;SDS011;70830;42.290;-71.354;2023-08-08T02:06:50;24.70;;;18.02;;
81378;SDS011;70830;42.290;-71.354;2023-08-08T02:09:17;20.98;;;17.77;;
81378;SDS011;70830;42.290;-71.354;2023-08-08T02:11:42;21.15;;;17.08;;
81378;SDS011;70830;42.290;-71.354;2023-08-08T02:14:08;22.30;;;17.20;;
81378;SDS011;70830;42.290;-71.354;2023-08-08T02:16:34;24.10;;;17.52;;
81378;SDS011;70830;42.290;-71.354;2023-08-08T02:19:00;17.63;;;15.73;;
81378;SDS011;70830;42.290;-71.354;2023-08-08T02:21:26;22.23;;;16.30;;
81378;SDS011;70830;42.290;-71.354;2023-08-08T02:23:52;20.08;;;16.27;;
81378;SDS011;70830;42.290;-71.354;2023-08-08T02:26:18;22.38;;;17.30;;
81378;SDS011;70830;42.290;-71.354;2023-08-08T02:28:46;22.88;;;17.75;;
81378;SDS011;70830;42.290;-71.354;2023-08-08T02:31:12;21.80;;;17.02;;
81378;SDS011;70830;42.290;-71.354;2023-08-08T02:33:39;18.88;;;16.27;;
81378;SDS011;70830;42.290;-71.354;2023-08-08T02:36:05;22.67;;;16.48;;
81378;SDS011;70830;42.290;-71.354;2023-08-08T02:38:31;18.75;;;15.63;;
81378;SDS011;70830;42.290;-71.354;2023-08-08T02:40:57;20.52;;;16.63;;
81378;SDS011;70830;42.290;-71.354;2023-08-08T02:43:23;24.27;;;17.67;;
81378;SDS011;70830;42.290;-71.354;2023-08-08T02:45:49;24.83;;;18.05;;
81378;SDS011;70830;42.290;-71.354;2023-08-08T02:48:15;23.65;;;17.67;;
81378;SDS011;70830;42.290;-71.354;2023-08-08T02:50:41;19.58;;;16.63;;
81378;SDS011;70830;42.290;-71.354;2023-08-08T02:53:08;23.67;;;17.45;;
81378;SDS011;70830;42.290;-71.354;2023-08-08T02:55:35;21.75;;;19.45;;
81378;SDS011;70830;42.290;-71.354;2023-08-08T02:58:02;23.63;;;17.73;;
81378;SDS011;70830;42.290;-71.354;2023-08-08T03:00:28;23.13;;;18.98;;
81378;SDS011;70830;42.290;-71.354;2023-08-08T03:02:54;22.27;;;19.42;;
81378;SDS011;70830;42.290;-71.354;2023-08-08T03:05:20;23.08;;;18.98;;
81378;SDS011;70830;42.290;-71.354;2023-08-08T03:07:46;21.58;;;17.15;;
81378;SDS011;70830;42.290;-71.354;2023-08-08T03:10:12;20.92;;;17.35;;
81378;SDS011;70830;42.290;-71.354;2023-08-08T03:12:38;19.35;;;17.13;;
81378;SDS011;70830;42.290;-71.354;2023-08-08T03:15:04;21.55;;;17.23;;
81378;SDS011;70830;42.290;-71.354;2023-08-08T03:17:31;21.15;;;18.13;;
81378;SDS011;70830;42.290;-71.354;2023-08-08T03:19:57;18.92;;;16.50;;
81378;SDS011;70830;42.290;-71.354;2023-08-08T03:22:23;24.33;;;17.98;;
81378;SDS011;70830;42.290;-71.354;2023-08-08T03:24:49;20.48;;;18.05;;
81378;SDS011;70830;42.290;-71.354;2023-08-08T03:27:15;22.48;;;19.08;;
81378;SDS011;70830;42.290;-71.354;2023-08-08T03:29:40;24.83;;;18.60;;
81378;SDS011;70830;42.290;-71.354;2023-08-08T03:32:06;22.27;;;17.80;;
81378;SDS011;70830;42.290;-71.354;2023-08-08T03:34:32;23.95;;;17.77;;
81378;SDS011;70830;42.290;-71.354;2023-08-08T03:36:59;24.65;;;19.02;;
81378;SDS011;70830;42.290;-71.354;2023-08-08T03:39:25;21.52;;;17.98;;
81378;SDS011;70830;42.290;-71.354;2023-08-08T03:41:51;22.02;;;19.40;;
81378;SDS011;70830;42.290;-71.354;2023-08-08T03:44:17;21.38;;;18.58;;
81378;SDS011;70830;42.290;-71.354;2023-08-08T03:46:43;22.67;;;18.17;;
81378;SDS011;70830;42.290;-71.354;2023-08-08T03:49:09;20.98;;;18.35;;
81378;SDS011;70830;42.290;-71.354;2023-08-08T03:51:35;22.23;;;19.30;;
81378;SDS011;70830;42.290;-71.354;2023-08-08T03:54:01;21.60;;;18.65;;
81378;SDS011;70830;42.290;-71.354;2023-08-08T03:56:27;22.05;;;18.58;;
81378;SDS011;70830;42.290;-71.354;2023-08-08T03:58:53;29.48;;;18.45;;
81378;SDS011;70830;42.290;-71.354;2023-08-08T04:01:19;22.02;;;17.98;;
81378;SDS011;70830;42.290;-71.354;2023-08-08T04:03:45;23.58;;;18.45;;
81378;SDS011;70830;42.290;-71.354;2023-08-08T04:06:11;22.58;;;17.95;;
81378;SDS011;70830;42.290;-71.354;2023-08-08T04:08:38;20.10;;;17.92;;
81378;SDS011;70830;42.290;-71.354;2023-08-08T04:11:04;22.45;;;18.30;;
81378;SDS011;70830;42.290;-71.354;2023-08-08T04:13:30;23.25;;;19.23;;
81378;SDS011;70830;42.290;-71.354;2023-08-08T04:15:56;23.92;;;18.92;;
81378;SDS011;70830;42.290;-71.354;2023-08-08T04:18:22;24.30;;;17.95;;
81378;SDS011;70830;42.290;-71.354;2023-08-08T04:20:48;28.52;;;19.10;;
81378;SDS011;70830;42.290;-71.354;2023-08-08T04:23:14;22.58;;;16.60;;
81378;SDS011;70830;42.290;-71.354;2023-08-08T04:25:40;23.38;;;18.70;;
81378;SDS011;70830;42.290;-71.354;2023-08-08T04:28:06;26.15;;;19.35;;
81378;SDS011;70830;42.290;-71.354;2023-08-08T04:30:32;20.45;;;17.70;;
81378;SDS011;70830;42.290;-71.354;2023-08-08T04:32:58;21.05;;;16.33;;
81378;SDS011;70830;42.290;-71.354;2023-08-08T04:35:24;29.50;;;19.70;;
81378;SDS011;70830;42.290;-71.354;2023-08-08T04:37:50;19.42;;;17.27;;
81378;SDS011;70830;42.290;-71.354;2023-08-08T04:40:16;23.50;;;17.67;;
81378;SDS011;70830;42.290;-71.354;2023-08-08T04:42:42;21.35;;;18.75;;
81378;SDS011;70830;42.290;-71.354;2023-08-08T04:45:08;27.00;;;19.73;;
81378;SDS011;70830;42.290;-71.354;2023-08-08T04:47:34;24.50;;;18.20;;
81378;SDS011;70830;42.290;-71.354;2023-08-08T04:50:00;25.63;;;17.75;;
81378;SDS011;70830;42.290;-71.354;2023-08-08T04:52:26;19.67;;;16.52;;
81378;SDS011;70830;42.290;-71.354;2023-08-08T04:54:52;26.48;;;16.50;;
81378;SDS011;70830;42.290;-71.354;2023-08-08T04:57:18;22.17;;;16.45;;
81378;SDS011;70830;42.290;-71.354;2023-08-08T04:59:44;28.00;;;17.13;;
81378;SDS011;70830;42.290;-71.354;2023-08-08T05:02:10;24.73;;;15.98;;
81378;SDS011;70830;42.290;-71.354;2023-08-08T05:04:36;20.33;;;14.90;;
81378;SDS011;70830;42.290;-71.354;2023-08-08T05:07:02;26.38;;;17.52;;
81378;SDS011;70830;42.290;-71.354;2023-08-08T05:09:28;18.80;;;15.13;;
81378;SDS011;70830;42.290;-71.354;2023-08-08T05:11:54;19.00;;;15.77;;
81378;SDS011;70830;42.290;-71.354;2023-08-08T05:14:20;20.77;;;15.40;;
81378;SDS011;70830;42.290;-71.354;2023-08-08T05:16:46;20.55;;;15.30;;
81378;SDS011;70830;42.290;-71.354;2023-08-08T05:19:12;19.58;;;13.80;;
81378;SDS011;70830;42.290;-71.354;2023-08-08T05:21:38;22.17;;;15.20;;
81378;SDS011;70830;42.290;-71.354;2023-08-08T05:24:04;17.50;;;11.88;;
81378;SDS011;70830;42.290;-71.354;2023-08-08T05:26:31;23.65;;;16.55;;
81378;SDS011;70830;42.290;-71.354;2023-08-08T05:28:57;21.45;;;14.95;;
81378;SDS011;70830;42.290;-71.354;2023-08-08T05:31:24;28.58;;;16.33;;
81378;SDS011;70830;42.290;-71.354;2023-08-08T05:33:50;18.58;;;14.57;;
81378;SDS011;70830;42.290;-71.354;2023-08-08T05:36:16;16.55;;;12.18;;
81378;SDS011;70830;42.290;-71.354;2023-08-08T05:38:42;17.38;;;13.45;;
81378;SDS011;70830;42.290;-71.354;2023-08-08T05:41:08;16.02;;;14.30;;
81378;SDS011;70830;42.290;-71.354;2023-08-08T05:43:34;20.00;;;11.77;;
81378;SDS011;70830;42.290;-71.354;2023-08-08T05:46:01;19.52;;;14.25;;
81378;SDS011;70830;42.290;-71.354;2023-08-08T05:48:28;19.58;;;14.23;;
81378;SDS011;70830;42.290;-71.354;2023-08-08T05:50:53;25.45;;;13.98;;
81378;SDS011;70830;42.290;-71.354;2023-08-08T05:53:19;21.60;;;14.82;;
81378;SDS011;70830;42.290;-71.354;2023-08-08T05:55:45;17.92;;;13.73;;
81378;SDS011;70830;42.290;-71.354;2023-08-08T05:58:11;24.20;;;18.38;;
81378;SDS011;70830;42.290;-71.354;2023-08-08T06:00:37;21.42;;;19.15;;
81378;SDS011;70830;42.290;-71.354;2023-08-08T06:03:03;23.38;;;16.35;;
81378;SDS011;70830;42.290;-71.354;2023-08-08T06:05:30;21.60;;;13.32;;
81378;SDS011;70830;42.290;-71.354;2023-08-08T06:07:56;21.50;;;15.68;;
81378;SDS011;70830;42.290;-71.354;2023-08-08T06:10:21;24.20;;;17.95;;
81378;SDS011;70830;42.290;-71.354;2023-08-08T06:12:48;20.15;;;15.52;;
81378;SDS011;70830;42.290;-71.354;2023-08-08T06:15:15;22.33;;;17.27;;
81378;SDS011;70830;42.290;-71.354;2023-08-08T06:17:41;17.38;;;11.45;;
81378;SDS011;70830;42.290;-71.354;2023-08-08T06:20:07;21.75;;;12.02;;
81378;SDS011;70830;42.290;-71.354;2023-08-08T06:22:35;21.98;;;10.52;;
81378;SDS011;70830;42.290;-71.354;2023-08-08T06:25:02;20.98;;;11.15;;
81378;SDS011;70830;42.290;-71.354;2023-08-08T06:27:28;16.05;;;9.93;;
81378;SDS011;70830;42.290;-71.354;2023-08-08T06:29:54;19.85;;;11.30;;
81378;SDS011;70830;42.290;-71.354;2023-08-08T06:32:21;20.23;;;11.43;;
81378;SDS011;70830;42.290;-71.354;2023-08-08T06:34:47;23.92;;;11.38;;
81378;SDS011;70830;42.290;-71.354;2023-08-08T06:37:13;20.23;;;10.68;;
81378;SDS011;70830;42.290;-71.354;2023-08-08T06:39:38;21.75;;;11.02;;
81378;SDS011;70830;42.290;-71.354;2023-08-08T06:42:05;20.27;;;10.95;;
81378;SDS011;70830;42.290;-71.354;2023-08-08T06:44:32;21.20;;;12.52;;
81378;SDS011;70830;42.290;-71.354;2023-08-08T06:46:58;19.38;;;12.35;;
81378;SDS011;70830;42.290;-71.354;2023-08-08T06:49:24;22.77;;;12.02;;
81378;SDS011;70830;42.290;-71.354;2023-08-08T06:51:50;19.38;;;13.63;;
81378;SDS011;70830;42.290;-71.354;2023-08-08T06:54:16;20.92;;;13.38;;
81378;SDS011;70830;42.290;-71.354;2023-08-08T06:56:42;25.02;;;14.35;;
81378;SDS011;70830;42.290;-71.354;2023-08-08T06:59:08;20.88;;;14.95;;
81378;SDS011;70830;42.290;-71.354;2023-08-08T07:01:34;20.20;;;13.88;;
81378;SDS011;70830;42.290;-71.354;2023-08-08T07:04:00;19.05;;;12.77;;
81378;SDS011;70830;42.290;-71.354;2023-08-08T07:06:26;18.35;;;14.15;;
81378;SDS011;70830;42.290;-71.354;2023-08-08T07:08:52;19.85;;;14.27;;
81378;SDS011;70830;42.290;-71.354;2023-08-08T07:11:20;23.02;;;19.63;;
81378;SDS011;70830;42.290;-71.354;2023-08-08T07:13:50;17.98;;;13.25;;
81378;SDS011;70830;42.290;-71.354;2023-08-08T07:16:16;19.08;;;13.93;;
81378;SDS011;70830;42.290;-71.354;2023-08-08T07:18:41;22.17;;;13.40;;
81378;SDS011;70830;42.290;-71.354;2023-08-08T07:21:07;21.83;;;13.00;;
81378;SDS011;70830;42.290;-71.354;2023-08-08T07:23:33;23.02;;;13.13;;
81378;SDS011;70830;42.290;-71.354;2023-08-08T07:25:59;21.52;;;13.40;;
81378;SDS011;70830;42.290;-71.354;2023-08-08T07:28:25;20.10;;;12.50;;
81378;SDS011;70830;42.290;-71.354;2023-08-08T07:30:51;17.15;;;10.80;;
81378;SDS011;70830;42.290;-71.354;2023-08-08T07:33:17;18.02;;;13.52;;
81378;SDS011;70830;42.290;-71.354;2023-08-08T07:35:43;15.88;;;12.70;;
81378;SDS011;70830;42.290;-71.354;2023-08-08T07:38:09;23.00;;;13.25;;
81378;SDS011;70830;42.290;-71.354;2023-08-08T07:40:35;21.67;;;13.43;;
81378;SDS011;70830;42.290;-71.354;2023-08-08T07:43:01;23.80;;;13.00;;
81378;SDS011;70830;42.290;-71.354;2023-08-08T07:45:27;20.30;;;12.68;;
81378;SDS011;70830;42.290;-71.354;2023-08-08T07:47:53;21.17;;;12.00;;
81378;SDS011;70830;42.290;-71.354;2023-08-08T07:50:19;21.55;;;12.27;;
81378;SDS011;70830;42.290;-71.354;2023-08-08T07:52:45;22.83;;;12.63;;
81378;SDS011;70830;42.290;-71.354;2023-08-08T07:55:11;23.35;;;12.38;;
81378;SDS011;70830;42.290;-71.354;2023-08-08T07:57:36;24.90;;;12.45;;
81378;SDS011;70830;42.290;-71.354;2023-08-08T08:00:05;25.02;;;12.93;;
81378;SDS011;70830;42.290;-71.354;2023-08-08T08:05:11;21.42;;;14.95;;
81378;SDS011;70830;42.290;-71.354;2023-08-08T08:07:37;28.25;;;14.27;;
81378;SDS011;70830;42.290;-71.354;2023-08-08T08:10:04;27.63;;;13.93;;
81378;SDS011;70830;42.290;-71.354;2023-08-08T08:12:32;24.90;;;12.80;;
81378;SDS011;70830;42.290;-71.354;2023-08-08T08:14:58;24.40;;;12.90;;
81378;SDS011;70830;42.290;-71.354;2023-08-08T08:17:24;23.02;;;13.05;;
81378;SDS011;70830;42.290;-71.354;2023-08-08T08:19:50;21.90;;;14.10;;
81378;SDS011;70830;42.290;-71.354;2023-08-08T08:22:17;23.88;;;12.85;;
81378;SDS011;70830;42.290;-71.354;2023-08-08T08:24:43;19.73;;;12.80;;
81378;SDS011;70830;42.290;-71.354;2023-08-08T08:27:09;18.27;;;13.70;;
81378;SDS011;70830;42.290;-71.354;2023-08-08T08:29:35;20.88;;;13.30;;
81378;SDS011;70830;42.290;-71.354;2023-08-08T08:32:01;20.40;;;11.50;;
81378;SDS011;70830;42.290;-71.354;2023-08-08T08:34:27;19.30;;;12.30;;
81378;SDS011;70830;42.290;-71.354;2023-08-08T08:36:53;20.38;;;12.15;;
81378;SDS011;70830;42.290;-71.354;2023-08-08T08:39:19;31.15;;;11.88;;
81378;SDS011;70830;42.290;-71.354;2023-08-08T08:41:46;17.63;;;11.85;;
81378;SDS011;70830;42.290;-71.354;2023-08-08T08:44:18;18.90;;;11.40;;
81378;SDS011;70830;42.290;-71.354;2023-08-08T08:46:47;23.27;;;12.52;;
81378;SDS011;70830;42.290;-71.354;2023-08-08T08:49:13;23.25;;;11.65;;
81378;SDS011;70830;42.290;-71.354;2023-08-08T08:51:42;22.20;;;12.35;;
81378;SDS011;70830;42.290;-71.354;2023-08-08T08:54:08;20.00;;;11.88;;
81378;SDS011;70830;42.290;-71.354;2023-08-08T08:56:36;22.08;;;12.02;;
81378;SDS011;70830;42.290;-71.354;2023-08-08T08:59:02;21.27;;;11.27;;
81378;SDS011;70830;42.290;-71.354;2023-08-08T09:01:28;23.88;;;11.65;;
81378;SDS011;70830;42.290;-71.354;2023-08-08T09:03:54;31.02;;;13.27;;
81378;SDS011;70830;42.290;-71.354;2023-08-08T09:06:23;24.30;;;14.35;;
81378;SDS011;70830;42.290;-71.354;2023-08-08T09:08:49;28.67;;;15.70;;
81378;SDS011;70830;42.290;-71.354;2023-08-08T09:11:15;24.90;;;14.23;;
81378;SDS011;70830;42.290;-71.354;2023-08-08T09:13:41;22.00;;;13.77;;
81378;SDS011;70830;42.290;-71.354;2023-08-08T09:16:07;26.52;;;15.32;;
81378;SDS011;70830;42.290;-71.354;2023-08-08T09:18:34;23.63;;;14.82;;
81378;SDS011;70830;42.290;-71.354;2023-08-08T09:21:03;22.67;;;14.63;;
81378;SDS011;70830;42.290;-71.354;2023-08-08T09:23:30;31.23;;;15.27;;
81378;SDS011;70830;42.290;-71.354;2023-08-08T09:25:56;27.13;;;16.38;;
81378;SDS011;70830;42.290;-71.354;2023-08-08T09:28:22;26.50;;;16.17;;
81378;SDS011;70830;42.290;-71.354;2023-08-08T09:30:48;22.48;;;15.32;;
81378;SDS011;70830;42.290;-71.354;2023-08-08T09:33:14;25.83;;;13.93;;
81378;SDS011;70830;42.290;-71.354;2023-08-08T09:35:40;40.72;;;17.98;;
81378;SDS011;70830;42.290;-71.354;2023-08-08T09:38:06;27.60;;;17.08;;
81378;SDS011;70830;42.290;-71.354;2023-08-08T09:40:32;1.35;;;1.35;;
81378;SDS011;70830;42.290;-71.354;2023-08-08T09:42:59;1.25;;;1.25;;
81378;SDS011;70830;42.290;-71.354;2023-08-08T09:45:25;1.63;;;1.55;;
81378;SDS011;70830;42.290;-71.354;2023-08-08T09:47:51;1.60;;;1.52;;
81378;SDS011;70830;42.290;-71.354;2023-08-08T09:50:18;1.75;;;1.65;;
81378;SDS011;70830;42.290;-71.354;2023-08-08T09:52:45;1.92;;;1.83;;
81378;SDS011;70830;42.290;-71.354;2023-08-08T09:55:13;1.98;;;1.88;;
81378;SDS011;70830;42.290;-71.354;2023-08-08T09:57:39;1.90;;;1.80;;
81378;SDS011;70830;42.290;-71.354;2023-08-08T10:00:06;2.00;;;1.90;;
81378;SDS011;70830;42.290;-71.354;2023-08-08T10:02:41;1.80;;;1.70;;
81378;SDS011;70830;42.290;-71.354;2023-08-08T10:05:09;1.80;;;1.70;;
81378;SDS011;70830;42.290;-71.354;2023-08-08T10:07:38;1.88;;;1.77;;
81378;SDS011;70830;42.290;-71.354;2023-08-08T10:10:06;2.05;;;1.80;;
81378;SDS011;70830;42.290;-71.354;2023-08-08T10:12:33;2.22;;;1.60;;
81378;SDS011;70830;42.290;-71.354;2023-08-08T10:14:59;1.40;;;1.40;;
81378;SDS011;70830;42.290;-71.354;2023-08-08T10:17:25;1.52;;;1.50;;
81378;SDS011;70830;42.290;-71.354;2023-08-08T10:19:55;1.90;;;1.80;;
81378;SDS011;70830;42.290;-71.354;2023-08-08T10:22:22;3.85;;;3.55;;
81378;SDS011;70830;42.290;-71.354;2023-08-08T10:24:53;1.70;;;1.63;;
81378;SDS011;70830;42.290;-71.354;2023-08-08T10:27:35;2.10;;;2.00;;
81378;SDS011;70830;42.290;-71.354;2023-08-08T10:30:03;1.30;;;1.30;;
81378;SDS011;70830;42.290;-71.354;2023-08-08T10:32:39;1.25;;;1.25;;
81378;SDS011;70830;42.290;-71.354;2023-08-08T10:35:06;1.10;;;1.10;;
81378;SDS011;70830;42.290;-71.354;2023-08-08T10:37:37;2.70;;;2.60;;
81378;SDS011;70830;42.290;-71.354;2023-08-08T10:40:04;1.20;;;1.20;;
81378;SDS011;70830;42.290;-71.354;2023-08-08T10:42:31;1.30;;;1.30;;
81378;SDS011;70830;42.290;-71.354;2023-08-08T10:45:08;1.38;;;1.38;;
81378;SDS011;70830;42.290;-71.354;2023-08-08T10:47:37;1.50;;;1.48;;
81378;SDS011;70830;42.290;-71.354;2023-08-08T10:50:04;1.30;;;1.30;;
81378;SDS011;70830;42.290;-71.354;2023-08-08T10:55:23;1.20;;;1.20;;
81378;SDS011;70830;42.290;-71.354;2023-08-08T10:58:13;2.35;;;1.90;;
81378;SDS011;70830;42.290;-71.354;2023-08-08T11:00:40;1.55;;;1.50;;
81378;SDS011;70830;42.290;-71.354;2023-08-08T11:03:07;1.40;;;1.40;;
81378;SDS011;70830;42.290;-71.354;2023-08-08T11:05:35;1.40;;;1.40;;
81378;SDS011;70830;42.290;-71.354;2023-08-08T11:08:03;1.70;;;1.60;;
81378;SDS011;70830;42.290;-71.354;2023-08-08T11:10:39;1.30;;;1.30;;
81378;SDS011;70830;42.290;-71.354;2023-08-08T11:13:06;1.92;;;1.83;;
81378;SDS011;70830;42.290;-71.354;2023-08-08T11:15:33;1.40;;;1.40;;
81378;SDS011;70830;42.290;-71.354;2023-08-08T11:18:01;1.92;;;1.83;;
81378;SDS011;70830;42.290;-71.354;2023-08-08T11:20:31;2.00;;;1.90;;
81378;SDS011;70830;42.290;-71.354;2023-08-08T11:22:59;2.08;;;1.83;;
81378;SDS011;70830;42.290;-71.354;2023-08-08T11:25:26;1.98;;;1.88;;
81378;SDS011;70830;42.290;-71.354;2023-08-08T11:27:54;1.52;;;1.42;;
81378;SDS011;70830;42.290;-71.354;2023-08-08T11:30:21;1.40;;;1.40;;
81378;SDS011;70830;42.290;-71.354;2023-08-08T11:32:49;1.60;;;1.50;;
81378;SDS011;70830;42.290;-71.354;2023-08-08T11:35:16;1.80;;;1.70;;
81378;SDS011;70830;42.290;-71.354;2023-08-08T11:37:44;1.42;;;1.42;;
81378;SDS011;70830;42.290;-71.354;2023-08-08T11:40:12;1.40;;;1.40;;
81378;SDS011;70830;42.290;-71.354;2023-08-08T11:42:39;1.50;;;1.50;;
81378;SDS011;70830;42.290;-71.354;2023-08-08T11:45:10;1.48;;;1.48;;
81378;SDS011;70830;42.290;-71.354;2023-08-08T11:47:38;2.10;;;2.00;;
81378;SDS011;70830;42.290;-71.354;2023-08-08T11:50:05;1.95;;;1.85;;
81378;SDS011;70830;42.290;-71.354;2023-08-08T11:52:33;2.17;;;2.08;;
81378;SDS011;70830;42.290;-71.354;2023-08-08T11:55:00;1.40;;;1.40;;
81378;SDS011;70830;42.290;-71.354;2023-08-08T11:57:26;1.90;;;1.80;;
81378;SDS011;70830;42.290;-71.354;2023-08-08T11:59:53;1.40;;;1.40;;
81378;SDS011;70830;42.290;-71.354;2023-08-08T12:02:19;2.45;;;2.25;;
81378;SDS011;70830;42.290;-71.354;2023-08-08T12:04:45;2.00;;;1.90;;
81378;SDS011;70830;42.290;-71.354;2023-08-08T12:07:11;1.45;;;1.42;;
81378;SDS011;70830;42.290;-71.354;2023-08-08T12:09:37;1.80;;;1.70;;
81378;SDS011;70830;42.290;-71.354;2023-08-08T12:12:04;1.67;;;1.58;;
81378;SDS011;70830;42.290;-71.354;2023-08-08T12:14:36;1.40;;;1.40;;
81378;SDS011;70830;42.290;-71.354;2023-08-08T12:17:02;1.40;;;1.40;;
81378;SDS011;70830;42.290;-71.354;2023-08-08T12:19:29;1.40;;;1.40;;
81378;SDS011;70830;42.290;-71.354;2023-08-08T12:21:55;3.13;;;2.88;;
81378;SDS011;70830;42.290;-71.354;2023-08-08T12:24:21;2.60;;;1.73;;
81378;SDS011;70830;42.290;-71.354;2023-08-08T12:26:47;1.40;;;1.40;;
81378;SDS011;70830;42.290;-71.354;2023-08-08T12:29:13;1.30;;;1.30;;
81378;SDS011;70830;42.290;-71.354;2023-08-08T12:31:39;1.77;;;1.67;;
81378;SDS011;70830;42.290;-71.354;2023-08-08T12:34:05;2.10;;;2.00;;
81378;SDS011;70830;42.290;-71.354;2023-08-08T12:36:31;2.45;;;2.35;;
81378;SDS011;70830;42.290;-71.354;2023-08-08T12:38:57;0.90;;;0.90;;
81378;SDS011;70830;42.290;-71.354;2023-08-08T12:41:23;1.33;;;1.33;;
81378;SDS011;70830;42.290;-71.354;2023-08-08T12:43:54;1.73;;;1.63;;
81378;SDS011;70830;42.290;-71.354;2023-08-08T12:46:20;1.52;;;1.50;;
81378;SDS011;70830;42.290;-71.354;2023-08-08T12:48:47;1.90;;;1.80;;
81378;SDS011;70830;42.290;-71.354;2023-08-08T12:51:12;1.58;;;1.50;;
81378;SDS011;70830;42.290;-71.354;2023-08-08T12:53:39;1.75;;;1.65;;
81378;SDS011;70830;42.290;-71.354;2023-08-08T12:56:05;1.70;;;1.60;;
81378;SDS011;70830;42.290;-71.354;2023-08-08T12:58:30;1.63;;;1.58;;
81378;SDS011;70830;42.290;-71.354;2023-08-08T13:00:56;1.40;;;1.40;;
81378;SDS011;70830;42.290;-71.354;2023-08-08T13:03:22;1.23;;;1.23;;
81378;SDS011;70830;42.290;-71.354;2023-08-08T13:05:48;2.20;;;2.10;;
81378;SDS011;70830;42.290;-71.354;2023-08-08T13:08:14;0.00;;;0.00;;
81378;SDS011;70830;42.290;-71.354;2023-08-08T13:10:40;0.15;;;0.15;;
81378;SDS011;70830;42.290;-71.354;2023-08-08T13:13:06;1.20;;;1.20;;
81378;SDS011;70830;42.290;-71.354;2023-08-08T13:15:32;1.50;;;1.50;;
81378;SDS011;70830;42.290;-71.354;2023-08-08T13:17:58;1.55;;;1.50;;
81378;SDS011;70830;42.290;-71.354;2023-08-08T13:20:27;1.80;;;1.70;;
81378;SDS011;70830;42.290;-71.354;2023-08-08T13:22:53;1.80;;;1.70;;
81378;SDS011;70830;42.290;-71.354;2023-08-08T13:25:19;2.10;;;2.00;;
81378;SDS011;70830;42.290;-71.354;2023-08-08T13:27:45;2.00;;;1.90;;
81378;SDS011;70830;42.290;-71.354;2023-08-08T13:30:12;7.65;;;2.13;;
81378;SDS011;70830;42.290;-71.354;2023-08-08T13:32:41;1.52;;;1.52;;
81378;SDS011;70830;42.290;-71.354;2023-08-08T13:35:07;1.90;;;1.80;;
81378;SDS011;70830;42.290;-71.354;2023-08-08T13:37:33;1.88;;;1.77;;
81378;SDS011;70830;42.290;-71.354;2023-08-08T13:39:59;1.83;;;1.73;;
81378;SDS011;70830;42.290;-71.354;2023-08-08T13:42:25;1.92;;;1.83;;
81378;SDS011;70830;42.290;-71.354;2023-08-08T13:44:51;2.00;;;1.90;;
81378;SDS011;70830;42.290;-71.354;2023-08-08T13:47:17;1.80;;;1.70;;
81378;SDS011;70830;42.290;-71.354;2023-08-08T13:49:42;2.20;;;2.10;;
81378;SDS011;70830;42.290;-71.354;2023-08-08T13:52:08;1.95;;;1.85;;
81378;SDS011;70830;42.290;-71.354;2023-08-08T13:54:35;2.00;;;1.90;;
81378;SDS011;70830;42.290;-71.354;2023-08-08T13:57:01;1.92;;;1.83;;
81378;SDS011;70830;42.290;-71.354;2023-08-08T13:59:26;1.80;;;1.70;;
81378;SDS011;70830;42.290;-71.354;2023-08-08T14:01:52;1.80;;;1.70;;
81378;SDS011;70830;42.290;-71.354;2023-08-08T14:04:18;2.00;;;1.90;;
81378;SDS011;70830;42.290;-71.354;2023-08-08T14:06:44;2.00;;;1.90;;
81378;SDS011;70830;42.290;-71.354;2023-08-08T14:09:10;1.92;;;1.83;;